Stefarion — DJ2142 — position and weather

sailwx.info

Track history (hours):
 
Tides and Currents Weather Stations Pressure Air Temp Water Temp Dewpoint Dewpoint Depression Visibility Wind Speed Wind Dir Waves Ship Positions

Stefarion

Last reported at 2014-Sep-19 15:15 UTC. Time now 2014-Sep-20 05:57 UTC.
Position N 51°11' E 006°48'.

Length 12 m.

Type: Sailing vessel. MMSI: 211203080.

Date/timePositionNaut miles runAvg speedWind from/ knotsBaromVisibWave heightAir tempDewpointWater temp
2014-Sep-19 15:15N 51°11' E 006°48'3 3.8
2014-Sep-19 14:34N 51°12' E 006°44'58 3.6
2014-Sep-18 22:24N 51°54' E 005°38'5 6.4
2014-Sep-18 21:33N 51°53' E 005°29'2 2.1
2014-Sep-18 20:33N 51°55' E 005°27'6 5.9
2014-Sep-18 19:33N 51°58' E 005°19'6 6.0
2014-Sep-18 18:33N 52°01' E 005°10'8 8.0
2014-Sep-18 17:33N 52°07' E 005°04'7 7.4
2014-Sep-18 16:33N 52°15' E 005°01'7 7.3
2014-Sep-18 15:34N 52°22' E 004°57'5 5.0
2014-Sep-18 14:29N 52°25' E 004°50'0 0.3
2014-Sep-18 13:33N 52°25' E 004°50'0 0.0
2014-Sep-18 12:33N 52°25' E 004°50'0 0.0
2014-Sep-18 11:33N 52°25' E 004°50'0 0.0
2014-Sep-18 10:33N 52°25' E 004°50'0 0.0
2014-Sep-18 09:34N 52°25' E 004°50'0 0.0
2014-Sep-18 08:33N 52°25' E 004°50'0 0.0
2014-Sep-18 07:33N 52°25' E 004°50'0 0.0
2014-Sep-18 06:33N 52°25' E 004°50'0 0.0
2014-Sep-18 05:33N 52°25' E 004°50'0 0.1
2014-Sep-18 04:33N 52°25' E 004°50'0 0.0
2014-Sep-18 03:33N 52°25' E 004°50'0 0.0
2014-Sep-18 02:33N 52°25' E 004°50'0 0.0
2014-Sep-18 01:33N 52°25' E 004°50'0 0.0
2014-Sep-18 00:33N 52°25' E 004°50'0 0.0
2014-Sep-17 23:33N 52°25' E 004°50'0 0.0
2014-Sep-17 22:33N 52°25' E 004°50'0 0.0
2014-Sep-17 21:33N 52°25' E 004°50'1 1.4
2014-Sep-17 20:33N 52°25' E 004°52'6 6.4
2014-Sep-17 19:33N 52°20' E 005°00'11 9.6
2014-Sep-17 18:24N 52°09' E 005°00'7 8.8
2014-Sep-17 17:33N 52°03' E 005°06'9 9.1
2014-Sep-17 16:33N 51°58' E 005°19'3 3.0
2014-Sep-17 15:33N 51°57' E 005°23'6 5.8
2014-Sep-17 14:33N 51°53' E 005°31'59 1.8
2014-Sep-16 06:31N 51°16' E 006°43'7 7.0
2014-Sep-16 05:29N 51°09' E 006°48'126 3.3
2014-Sep-14 15:05N 49°20' E 008°28'4 7.9
2014-Sep-14 14:33N 49°16' E 008°27'1111.0
2014-Sep-14 13:33N 49°06' E 008°22'1211.3
2014-Sep-14 12:31N 48°56' E 008°11'10 0.5
2014-Sep-13 17:17N 48°47' E 008°03'8 8.9
2014-Sep-13 16:21N 48°41' E 007°55'0 0.0
2014-Sep-12 21:13N 48°41' E 007°55'2 2.8
2014-Sep-12 20:33N 48°42' E 007°57'14 4.7
2014-Sep-12 17:33N 48°54' E 008°09'4 3.8
2014-Sep-12 16:33N 48°57' E 008°12'4 3.6
2014-Sep-12 15:33N 48°59' E 008°16'4 3.9
2014-Sep-12 14:33N 49°03' E 008°18'4 4.2
2014-Sep-12 13:33N 49°06' E 008°22'4 4.0
2014-Sep-12 12:33N 49°10' E 008°22'4 4.3
2014-Sep-12 11:33N 49°15' E 008°24'4 4.5
2014-Sep-12 10:33N 49°17' E 008°29'3 3.3
2014-Sep-12 09:33N 49°21' E 008°29'109 3.5
2014-Sep-11 02:05N 50°54' E 007°00'20 3.6
2014-Sep-10 20:33N 51°11' E 006°45'2 2.4
2014-Sep-10 19:33N 51°13' E 006°46'60 2.1
2014-Sep-09 15:33N 51°54' E 005°36'  
Track history (hours):
 
Tides and Currents Weather Stations Pressure Air Temp Water Temp Dewpoint Dewpoint Depression Visibility Wind Speed Wind Dir Waves Ship Positions

Stefarion

Last reported at 2014-Sep-19 15:15 UTC. Time now 2014-Sep-20 05:57 UTC.
Position N 51°11' E 006°48'.

Length 12 m.

Type: Sailing vessel. MMSI: 211203080.

Date/timePositionNaut miles runAvg speedWind from/ knotsBaromVisibWave heightAir tempDewpointWater temp
2014-Sep-19 15:15N 51°11' E 006°48'3 3.8
2014-Sep-19 14:34N 51°12' E 006°44'58 3.6
2014-Sep-18 22:24N 51°54' E 005°38'5 6.4
2014-Sep-18 21:33N 51°53' E 005°29'2 2.1
2014-Sep-18 20:33N 51°55' E 005°27'6 5.9
2014-Sep-18 19:33N 51°58' E 005°19'6 6.0
2014-Sep-18 18:33N 52°01' E 005°10'8 8.0
2014-Sep-18 17:33N 52°07' E 005°04'7 7.4
2014-Sep-18 16:33N 52°15' E 005°01'7 7.3
2014-Sep-18 15:34N 52°22' E 004°57'5 5.0
2014-Sep-18 14:29N 52°25' E 004°50'0 0.3
2014-Sep-18 13:33N 52°25' E 004°50'0 0.0
2014-Sep-18 12:33N 52°25' E 004°50'0 0.0
2014-Sep-18 11:33N 52°25' E 004°50'0 0.0
2014-Sep-18 10:33N 52°25' E 004°50'0 0.0
2014-Sep-18 09:34N 52°25' E 004°50'0 0.0
2014-Sep-18 08:33N 52°25' E 004°50'0 0.0
2014-Sep-18 07:33N 52°25' E 004°50'0 0.0
2014-Sep-18 06:33N 52°25' E 004°50'0 0.0
2014-Sep-18 05:33N 52°25' E 004°50'0 0.1
2014-Sep-18 04:33N 52°25' E 004°50'0 0.0
2014-Sep-18 03:33N 52°25' E 004°50'0 0.0
2014-Sep-18 02:33N 52°25' E 004°50'0 0.0
2014-Sep-18 01:33N 52°25' E 004°50'0 0.0
2014-Sep-18 00:33N 52°25' E 004°50'0 0.0
2014-Sep-17 23:33N 52°25' E 004°50'0 0.0
2014-Sep-17 22:33N 52°25' E 004°50'0 0.0
2014-Sep-17 21:33N 52°25' E 004°50'1 1.4
2014-Sep-17 20:33N 52°25' E 004°52'6 6.4
2014-Sep-17 19:33N 52°20' E 005°00'11 9.6
2014-Sep-17 18:24N 52°09' E 005°00'7 8.8
2014-Sep-17 17:33N 52°03' E 005°06'9 9.1
2014-Sep-17 16:33N 51°58' E 005°19'3 3.0
2014-Sep-17 15:33N 51°57' E 005°23'6 5.8
2014-Sep-17 14:33N 51°53' E 005°31'59 1.8
2014-Sep-16 06:31N 51°16' E 006°43'7 7.0
2014-Sep-16 05:29N 51°09' E 006°48'126 3.3
2014-Sep-14 15:05N 49°20' E 008°28'4 7.9
2014-Sep-14 14:33N 49°16' E 008°27'1111.0
2014-Sep-14 13:33N 49°06' E 008°22'1211.3
2014-Sep-14 12:31N 48°56' E 008°11'10 0.5
2014-Sep-13 17:17N 48°47' E 008°03'8 8.9
2014-Sep-13 16:21N 48°41' E 007°55'0 0.0
2014-Sep-12 21:13N 48°41' E 007°55'2 2.8
2014-Sep-12 20:33N 48°42' E 007°57'14 4.7
2014-Sep-12 17:33N 48°54' E 008°09'4 3.8
2014-Sep-12 16:33N 48°57' E 008°12'4 3.6
2014-Sep-12 15:33N 48°59' E 008°16'4 3.9
2014-Sep-12 14:33N 49°03' E 008°18'4 4.2
2014-Sep-12 13:33N 49°06' E 008°22'4 4.0
2014-Sep-12 12:33N 49°10' E 008°22'4 4.3
2014-Sep-12 11:33N 49°15' E 008°24'4 4.5
2014-Sep-12 10:33N 49°17' E 008°29'3 3.3
2014-Sep-12 09:33N 49°21' E 008°29'109 3.5
2014-Sep-11 02:05N 50°54' E 007°00'20 3.6
2014-Sep-10 20:33N 51°11' E 006°45'2 2.4
2014-Sep-10 19:33N 51°13' E 006°46'60 2.1
2014-Sep-09 15:33N 51°54' E 005°36'  

Dump ship's entire track history